Time;durP1;ratioP1;P1;durP2;ratioP2;P2;SDS_P1;SDS_P2;PMS_P1;PMS_P2;Temp;Humidity;BMP_temperature;BMP_pressure;BME280_temperature;BME280_humidity;BME280_pressure;Samples;Min_cycle;Max_cycle;Signal;HPM_P1;HPM_P2
2023/10/19 00:01:25;;;;;;;6.50;4.07;;;12.50;99.90;;;12.72;nan;98884.78;4991983;28;20724;-65
2023/10/19 00:03:55;;;;;;;7.40;4.30;;;12.50;99.90;;;12.73;nan;98875.97;4991596;28;21111;-65
2023/10/19 00:06:23;;;;;;;3.70;2.70;;;12.50;99.90;;;12.78;nan;98873.66;4989651;28;21269;-66
2023/10/19 00:08:52;;;;;;;7.43;4.30;;;12.60;99.90;;;12.73;nan;98873.34;4992485;28;20661;-65
2023/10/19 00:11:24;;;;;;;4.20;3.03;;;12.50;99.90;;;12.72;nan;98869.91;4991541;28;21206;-65
2023/10/19 00:13:51;;;;;;;9.10;5.30;;;12.50;99.90;;;12.72;nan;98859.44;4988825;28;20622;-64
2023/10/19 00:16:22;;;;;;;6.70;2.50;;;12.50;99.90;;;12.69;nan;98867.59;4985641;28;20684;-65
2023/10/19 00:18:51;;;;;;;5.60;3.10;;;12.50;99.90;;;12.70;nan;98863.19;4983584;28;20754;-66
2023/10/19 00:21:20;;;;;;;6.90;3.33;;;12.50;99.90;;;12.77;nan;98857.16;4983263;28;20622;-65
2023/10/19 00:23:48;;;;;;;5.10;2.03;;;12.50;99.90;;;12.82;nan;98864.50;4976349;28;20713;-65
2023/10/19 00:26:24;;;;;;;2.17;2.00;;;12.60;99.90;;;12.85;nan;98854.50;4982896;28;20646;-65
2023/10/19 00:28:55;;;;;;;9.73;4.40;;;12.60;99.90;;;12.86;nan;98852.72;4982218;28;20670;-65
2023/10/19 00:31:24;;;;;;;6.80;4.70;;;12.60;99.90;;;12.86;nan;98857.94;4990890;28;20673;-65
2023/10/19 00:33:51;;;;;;;7.20;4.53;;;12.60;99.90;;;12.86;nan;98863.19;4990013;28;20642;-65
2023/10/19 00:36:22;;;;;;;9.17;4.37;;;12.60;99.90;;;12.80;nan;98858.63;4981640;28;20657;-65
2023/10/19 00:41:31;;;;;;;6.83;3.87;;;12.60;99.90;;;12.88;nan;98855.97;4990669;28;20687;-64
2023/10/19 00:44:12;;;;;;;1.47;1.40;;;12.70;99.90;;;12.86;nan;98850.09;4987186;28;20645;-65
2023/10/19 00:46:43;;;;;;;4.20;2.77;;;12.60;99.90;;;12.86;nan;98850.09;4988245;28;20639;-63
2023/10/19 00:49:15;;;;;;;5.97;4.20;;;12.60;99.90;;;12.83;nan;98853.03;4991507;28;20748;-65
2023/10/19 00:52:02;;;;;;;2.63;1.67;;;12.60;99.90;;;12.83;nan;98847.81;4980174;28;20639;-65
2023/10/19 00:54:33;;;;;;;3.03;1.63;;;12.60;99.90;;;12.85;nan;98846.66;4982043;28;20642;-65
2023/10/19 00:57:11;;;;;;;1.23;1.00;;;12.60;99.90;;;12.86;nan;98848.28;4988338;28;21251;-65
2023/10/19 00:59:47;;;;;;;2.40;2.20;;;12.60;99.90;;;12.87;nan;98849.09;4980908;28;20682;-65
2023/10/19 01:02:28;;;;;;;5.77;3.80;;;12.70;99.90;;;12.88;nan;98835.03;4988706;28;20634;-65
2023/10/19 01:05:00;;;;;;;2.20;1.77;;;12.60;99.90;;;12.90;nan;98838.31;4987559;28;21199;-65
2023/10/19 01:07:29;;;;;;;2.03;1.17;;;12.70;99.90;;;12.91;nan;98842.53;4981727;28;20642;-65
2023/10/19 01:10:03;;;;;;;1.60;1.50;;;12.70;99.90;;;12.91;nan;98842.53;4983939;28;20685;-65
2023/10/19 01:15:23;;;;;;;1.20;1.00;;;12.70;99.90;;;12.92;nan;98825.88;4984748;28;20645;-65
2023/10/19 01:17:52;;;;;;;2.50;1.70;;;12.70;99.90;;;12.92;nan;98825.88;4989375;28;20638;-64
2023/10/19 01:20:23;;;;;;;3.80;2.10;;;12.70;99.90;;;12.95;nan;98826.34;4984373;28;20677;-65
2023/10/19 01:23:14;;;;;;;2.17;1.00;;;12.70;99.90;;;13.00;nan;98828.44;4986360;28;20638;-65
2023/10/19 01:25:44;;;;;;;0.70;0.70;;;12.80;99.90;;;13.03;nan;98828.91;4984697;28;20649;-65
2023/10/19 01:28:16;;;;;;;3.47;2.57;;;12.80;99.90;;;13.06;nan;98819.94;4988943;28;20635;-65
2023/10/19 01:30:45;;;;;;;3.83;2.63;;;12.80;99.90;;;13.01;nan;98817.00;4982735;28;20639;-65
2023/10/19 01:33:18;;;;;;;3.23;2.30;;;12.70;99.90;;;13.02;nan;98814.22;4989225;28;20730;-65
2023/10/19 01:38:32;;;;;;;4.40;2.47;;;12.80;99.90;;;13.03;nan;98817.66;4987631;28;20667;-65
2023/10/19 01:41:13;;;;;;;6.90;3.27;;;12.80;99.90;;;13.01;nan;98817.81;4989124;28;20681;-65
2023/10/19 01:43:42;;;;;;;5.37;3.27;;;12.80;99.90;;;13.02;nan;98821.25;4984763;28;21214;-65
2023/10/19 01:46:11;;;;;;;0.70;0.63;;;12.80;99.90;;;13.03;nan;98815.84;4989382;28;20635;-65
2023/10/19 01:48:44;;;;;;;0.60;0.60;;;12.80;99.90;;;13.02;nan;98816.00;4982335;28;20747;-66
2023/10/19 01:51:15;;;;;;;0.70;0.67;;;12.80;99.90;;;13.00;nan;98812.75;4986520;28;20634;-65
2023/10/19 01:53:45;;;;;;;1.20;0.90;;;12.80;99.90;;;12.99;nan;98804.06;4988532;28;20645;-65
2023/10/19 01:56:14;;;;;;;2.00;1.87;;;12.80;99.90;;;12.98;nan;98797.22;4984804;28;20645;-65
2023/10/19 01:58:46;;;;;;;0.63;0.60;;;12.70;99.90;;;12.97;nan;98798.19;4989562;28;20666;-65
2023/10/19 02:01:20;;;;;;;2.90;2.37;;;12.80;99.90;;;12.95;nan;98794.94;4981324;28;21180;-65
2023/10/19 02:03:58;;;;;;;0.63;0.63;;;12.70;99.90;;;12.97;nan;98792.94;4985083;28;20660;-64
2023/10/19 02:06:36;;;;;;;3.20;2.70;;;12.70;99.90;;;12.91;nan;98787.56;4982041;28;20653;-65
2023/10/19 02:09:17;;;;;;;5.70;3.50;;;12.70;99.90;;;12.92;nan;98791.84;4981690;28;20712;-65
2023/10/19 02:11:47;;;;;;;7.20;4.47;;;12.70;99.90;;;12.86;nan;98782.06;4982250;28;20639;-65
2023/10/19 02:14:16;;;;;;;6.80;3.43;;;12.70;99.90;;;12.92;nan;98784.00;4988057;28;20614;-65
2023/10/19 02:16:50;;;;;;;0.97;0.80;;;12.70;99.90;;;12.93;nan;98777.75;4985606;28;21222;-65
2023/10/19 02:19:22;;;;;;;2.67;2.47;;;12.60;99.90;;;12.94;nan;98774.16;4982632;28;20674;-63
2023/10/19 02:21:52;;;;;;;1.47;1.47;;;12.70;99.90;;;12.94;nan;98771.53;4984414;28;21220;-65
2023/10/19 02:24:19;;;;;;;2.10;1.40;;;12.70;99.90;;;12.94;nan;98768.94;4978152;28;20636;-65
2023/10/19 02:26:51;;;;;;;5.57;3.77;;;12.70;99.90;;;12.94;nan;98758.47;4988806;28;21219;-65
2023/10/19 02:29:18;;;;;;;1.57;1.27;;;12.70;99.90;;;12.90;nan;98750.16;4987129;28;20669;-65
2023/10/19 02:31:47;;;;;;;3.10;2.27;;;12.70;99.90;;;12.92;nan;98747.34;4985981;28;20691;-65
2023/10/19 02:34:15;;;;;;;5.53;3.87;;;12.70;99.90;;;12.87;nan;98750.47;4986743;28;21071;-65
2023/10/19 02:36:45;;;;;;;1.33;1.17;;;12.70;99.90;;;12.85;nan;98752.44;4983546;28;20646;-65
2023/10/19 02:39:14;;;;;;;6.20;3.70;;;12.60;99.90;;;12.84;nan;98747.38;4986703;28;20678;-65
2023/10/19 02:41:44;;;;;;;3.90;1.67;;;12.60;99.90;;;12.82;nan;98751.97;4987453;28;20644;-66
2023/10/19 02:46:58;;;;;;;8.70;4.40;;;12.60;99.90;;;12.76;nan;98744.78;4985843;28;20721;-65
2023/10/19 02:49:27;;;;;;;3.70;1.90;;;12.60;99.90;;;12.75;nan;98749.22;4989063;28;21048;-65
2023/10/19 02:51:54;;;;;;;1.60;1.50;;;12.60;99.90;;;12.74;nan;98751.97;4986921;28;20638;-65
2023/10/19 02:54:24;;;;;;;5.30;1.63;;;12.60;99.90;;;12.77;nan;98751.66;4988788;28;20639;-65
2023/10/19 02:56:56;;;;;;;0.70;0.70;;;12.60;99.90;;;12.78;nan;98748.03;4986924;28;20646;-65
2023/10/19 02:59:25;;;;;;;1.60;1.27;;;12.60;99.90;;;12.78;nan;98746.25;4988013;28;20677;-65
2023/10/19 03:04:35;;;;;;;2.87;2.50;;;12.60;99.90;;;12.75;nan;98749.22;4987491;28;20639;-65
2023/10/19 03:07:04;;;;;;;1.20;1.20;;;12.60;99.90;;;12.76;nan;98757.88;4985762;28;20635;-65
2023/10/19 03:09:37;;;;;;;1.83;1.47;;;12.60;99.90;;;12.74;nan;98754.59;4970821;28;20677;-65
2023/10/19 03:12:09;;;;;;;1.80;1.33;;;12.50;99.90;;;12.77;nan;98755.09;4991573;28;20653;-65
2023/10/19 03:14:37;;;;;;;1.83;1.73;;;12.60;99.90;;;12.76;nan;98761.31;4989811;28;21078;-65
2023/10/19 03:17:05;;;;;;;1.47;1.37;;;12.60;99.90;;;12.81;nan;98753.78;4990214;28;21222;-66
2023/10/19 03:19:34;;;;;;;3.63;1.50;;;12.60;99.90;;;12.85;nan;98741.16;4991023;28;20677;-65
2023/10/19 03:22:03;;;;;;;2.87;2.00;;;12.70;99.90;;;12.87;nan;98740.00;4988500;28;21225;-64
2023/10/19 03:24:36;;;;;;;1.17;1.00;;;12.70;99.90;;;12.92;nan;98735.09;4992114;28;20629;-65
2023/10/19 03:27:23;;;;;;;2.53;2.20;;;12.70;99.90;;;12.98;nan;98736.19;4991053;28;20636;-63
2023/10/19 03:29:55;;;;;;;0.40;0.40;;;12.80;99.90;;;13.01;nan;98733.25;4989558;28;20666;-65
2023/10/19 03:32:28;;;;;;;1.43;1.30;;;12.80;99.90;;;13.03;nan;98723.41;4988395;28;20642;-64
2023/10/19 03:34:56;;;;;;;0.70;0.70;;;12.80;99.90;;;13.00;nan;98718.50;4984310;28;20614;-64
2023/10/19 03:37:25;;;;;;;5.40;2.43;;;12.80;99.90;;;13.02;nan;98716.53;4989908;28;20641;-64
2023/10/19 03:39:55;;;;;;;4.60;2.30;;;12.80;99.90;;;12.99;nan;98714.28;4991155;28;20681;-64
2023/10/19 03:42:29;;;;;;;1.13;0.90;;;12.80;99.90;;;13.01;nan;98714.91;4996108;28;21026;-64
2023/10/19 03:44:57;;;;;;;6.17;2.37;;;12.80;99.90;;;13.02;nan;98716.53;4990311;28;20626;-64
2023/10/19 03:47:38;;;;;;;8.07;2.47;;;12.80;99.90;;;13.02;nan;98704.28;4989230;28;20645;-64
2023/10/19 03:50:20;;;;;;;3.03;1.53;;;12.80;99.90;;;13.02;nan;98706.88;4990788;28;20669;-65
2023/10/19 03:52:47;;;;;;;3.93;2.47;;;12.80;99.90;;;13.00;nan;98698.38;4977371;28;20722;-65
2023/10/19 03:55:23;;;;;;;2.40;0.77;;;12.80;99.90;;;13.02;nan;98685.13;4989970;28;20708;-65
2023/10/19 03:57:52;;;;;;;1.50;1.40;;;12.80;99.90;;;13.00;nan;98682.69;4991653;28;20648;-64
2023/10/19 04:00:24;;;;;;;3.77;1.37;;;12.80;99.90;;;13.04;nan;98680.53;4979485;28;20666;-64
2023/10/19 04:02:53;;;;;;;2.03;1.00;;;12.80;99.90;;;13.02;nan;98692.97;4991743;28;20634;-65
2023/10/19 04:05:22;;;;;;;2.20;0.97;;;12.80;99.90;;;12.95;nan;98687.59;4985585;28;20638;-63
2023/10/19 04:07:57;;;;;;;0.90;0.60;;;12.80;99.90;;;12.92;nan;98680.13;4984676;28;20646;-65
2023/10/19 04:10:47;;;;;;;4.30;1.47;;;12.80;99.90;;;12.92;nan;98676.69;4964266;28;20673;-64
2023/10/19 04:13:12;;;;;;;2.00;1.43;;;12.70;99.90;;;12.91;nan;98675.84;4989576;28;20646;-65
2023/10/19 04:15:41;;;;;;;3.50;2.53;;;12.70;99.90;;;12.93;nan;98676.50;4990927;28;21203;-64
2023/10/19 04:18:08;;;;;;;2.23;2.00;;;12.80;99.90;;;12.97;nan;98679.56;4989395;28;20661;-64
2023/10/19 04:23:21;;;;;;;2.50;2.30;;;12.80;99.90;;;12.94;nan;98683.38;4985571;28;21222;-64
2023/10/19 04:25:48;;;;;;;0.57;0.57;;;12.80;99.90;;;12.92;nan;98668.81;4989546;28;20637;-64
2023/10/19 04:28:15;;;;;;;0.53;0.53;;;12.70;99.90;;;12.92;nan;98663.59;4989211;28;20701;-64
2023/10/19 04:30:42;;;;;;;4.37;2.63;;;12.70;99.90;;;12.91;nan;98664.56;4991734;28;20630;-64
2023/10/19 04:33:10;;;;;;;1.03;0.93;;;12.70;99.90;;;12.93;nan;98671.25;4987157;28;20642;-64
2023/10/19 04:35:37;;;;;;;2.20;1.73;;;12.70;99.90;;;12.94;nan;98664.22;4988027;28;20630;-64
2023/10/19 04:38:06;;;;;;;2.70;1.43;;;12.70;99.90;;;12.97;nan;98669.09;4986690;28;20641;-64
2023/10/19 04:40:33;;;;;;;1.50;1.43;;;12.70;99.90;;;12.94;nan;98667.66;4989270;28;20678;-66
2023/10/19 04:43:05;;;;;;;2.90;1.57;;;12.70;99.90;;;12.98;nan;98670.75;4989165;28;20653;-64
2023/10/19 04:45:32;;;;;;;4.93;3.20;;;12.80;99.90;;;13.02;nan;98675.47;4990400;28;20630;-64
2023/10/19 04:47:59;;;;;;;5.30;2.53;;;12.80;99.90;;;13.04;nan;98675.28;4988988;28;20634;-65
2023/10/19 04:50:26;;;;;;;4.30;1.60;;;12.90;99.90;;;13.04;nan;98673.53;4991154;28;20666;-65
2023/10/19 04:52:53;;;;;;;2.60;1.43;;;12.90;99.90;;;13.05;nan;98680.38;4986173;28;20650;-64
2023/10/19 04:55:20;;;;;;;3.37;0.97;;;12.90;99.90;;;13.06;nan;98670.72;4989283;28;20630;-64
2023/10/19 04:57:48;;;;;;;4.83;2.90;;;12.90;99.90;;;13.04;nan;98665.66;4987604;28;20692;-64
2023/10/19 05:00:17;;;;;;;5.77;3.17;;;12.80;99.90;;;13.01;nan;98660.75;4989242;28;20674;-63
2023/10/19 05:02:44;;;;;;;8.57;5.00;;;12.80;99.90;;;13.02;nan;98657.16;4988317;28;21507;-64
2023/10/19 05:05:13;;;;;;;10.40;5.20;;;12.90;99.90;;;13.04;nan;98667.44;4988142;28;21311;-64
2023/10/19 05:07:40;;;;;;;6.03;3.80;;;12.90;99.90;;;13.07;nan;98669.75;4982023;28;20646;-67
2023/10/19 05:10:08;;;;;;;11.37;5.37;;;12.90;99.90;;;13.02;nan;98661.56;4988513;28;20678;-66
2023/10/19 05:12:35;;;;;;;6.97;4.67;;;12.90;99.90;;;13.01;nan;98652.09;4987944;28;20654;-66
2023/10/19 05:15:05;;;;;;;6.47;4.83;;;12.90;99.90;;;13.01;nan;98652.09;4981884;28;20642;-64
2023/10/19 05:17:32;;;;;;;6.93;3.87;;;12.80;99.90;;;12.99;nan;98651.44;4989934;28;20626;-64
2023/10/19 05:19:59;;;;;;;9.07;5.10;;;12.80;99.90;;;12.97;nan;98650.78;4989597;28;20678;-64
2023/10/19 05:22:29;;;;;;;7.07;4.90;;;12.80;99.90;;;12.95;nan;98658.00;4984688;28;20650;-64
2023/10/19 05:24:56;;;;;;;7.03;4.20;;;12.70;99.90;;;12.94;nan;98656.38;4987121;28;20646;-64
2023/10/19 05:27:23;;;;;;;3.53;2.87;;;12.70;99.90;;;12.92;nan;98658.34;4989366;28;21263;-64
2023/10/19 05:29:51;;;;;;;7.40;5.27;;;12.70;99.90;;;12.88;nan;98659.69;4988037;28;20666;-65
2023/10/19 05:32:18;;;;;;;6.33;4.27;;;12.70;99.90;;;12.88;nan;98659.69;4986839;28;20962;-65
2023/10/19 05:34:45;;;;;;;7.80;4.17;;;12.70;99.90;;;12.86;nan;98665.06;4986840;28;20635;-65
2023/10/19 05:37:12;;;;;;;8.63;5.20;;;12.70;99.90;;;12.85;nan;98649.56;4978851;28;20639;-64
2023/10/19 05:39:39;;;;;;;6.77;4.27;;;12.70;99.90;;;12.85;nan;98646.94;4988420;28;20700;-65
2023/10/19 05:42:06;;;;;;;4.87;3.37;;;12.70;99.90;;;12.85;nan;98649.56;4989404;28;20762;-65
2023/10/19 05:44:34;;;;;;;4.97;3.40;;;12.70;99.90;;;12.88;nan;98657.06;4988224;28;20697;-65
2023/10/19 05:47:02;;;;;;;7.03;4.00;;;12.70;99.90;;;12.89;nan;98663.91;4989214;28;21223;-65
2023/10/19 05:49:29;;;;;;;4.87;3.50;;;12.70;99.90;;;12.87;nan;98661.50;4988292;28;20673;-65
2023/10/19 05:51:56;;;;;;;6.70;4.37;;;12.70;99.90;;;12.89;nan;98654.28;4987735;28;20638;-65
2023/10/19 05:54:23;;;;;;;5.23;4.10;;;12.70;99.90;;;12.87;nan;98652.81;4986423;28;20665;-64
2023/10/19 05:56:52;;;;;;;8.97;4.47;;;12.70;99.90;;;12.89;nan;98658.69;4975665;28;20654;-65
2023/10/19 05:59:19;;;;;;;6.73;4.27;;;12.70;99.90;;;12.89;nan;98662.13;4986075;28;20669;-64
2023/10/19 06:01:47;;;;;;;7.37;4.73;;;12.70;99.90;;;12.87;nan;98661.50;4983097;28;20701;-64
2023/10/19 06:04:15;;;;;;;9.87;4.90;;;12.70;99.90;;;12.91;nan;98669.81;4985848;28;20646;-65
2023/10/19 06:06:44;;;;;;;7.20;4.77;;;12.70;99.90;;;12.93;nan;98660.78;4986328;28;20634;-65
2023/10/19 06:09:11;;;;;;;6.77;4.50;;;12.80;99.90;;;12.93;nan;98670.44;4981685;28;20666;-65
2023/10/19 06:11:42;;;;;;;7.07;4.57;;;12.80;99.90;;;12.96;nan;98686.63;4988474;28;20650;-65
2023/10/19 06:14:09;;;;;;;6.33;4.03;;;12.80;99.90;;;12.98;nan;98674.19;4982442;28;20649;-64
2023/10/19 06:16:37;;;;;;;5.13;3.80;;;12.80;99.90;;;13.05;nan;98684.81;4993637;28;20638;-65
2023/10/19 06:19:05;;;;;;;4.77;4.23;;;12.90;99.90;;;13.09;nan;98683.47;4989044;28;20678;-65
2023/10/19 06:21:33;;;;;;;6.83;4.20;;;12.90;99.90;;;13.12;nan;98681.31;4990536;28;20688;-65
2023/10/19 06:24:00;;;;;;;6.67;4.50;;;12.90;99.90;;;13.14;nan;98686.38;4994609;28;20641;-64
2023/10/19 06:26:28;;;;;;;8.60;4.57;;;13.00;99.90;;;13.19;nan;98681.44;4988809;28;20645;-65
2023/10/19 06:29:02;;;;;;;5.83;4.37;;;13.00;99.90;;;13.22;nan;98676.66;4976268;28;20788;-65
2023/10/19 06:31:29;;;;;;;6.27;4.37;;;13.00;99.90;;;13.27;nan;98677.97;4982564;28;20648;-64
2023/10/19 06:33:57;;;;;;;8.90;4.90;;;13.10;99.90;;;13.30;nan;98675.81;4983649;28;21219;-65
2023/10/19 06:36:25;;;;;;;5.47;4.13;;;13.10;99.90;;;13.40;nan;98667.72;4980527;28;21020;-64
2023/10/19 06:38:54;;;;;;;8.07;4.03;;;13.20;99.90;;;13.64;nan;98665.72;4994959;28;20716;-65
2023/10/19 06:41:22;;;;;;;5.90;4.00;;;13.40;99.90;;;14.17;nan;98663.88;4986466;28;20668;-65
2023/10/19 06:43:48;;;;;;;6.80;3.83;;;13.80;99.90;;;14.80;nan;98673.84;4994418;28;20695;-64
2023/10/19 06:46:15;;;;;;;5.07;4.60;;;14.40;99.90;;;15.28;nan;98673.97;4998822;28;21016;-66
2023/10/19 06:48:42;;;;;;;7.97;4.90;;;14.90;99.90;;;15.58;nan;98673.88;4996727;28;20708;-64
2023/10/19 06:51:11;;;;;;;8.27;3.80;;;15.30;99.90;;;15.81;nan;98677.09;4995377;28;20667;-64
2023/10/19 06:53:38;;;;;;;13.20;4.00;;;15.50;99.90;;;16.04;nan;98677.66;4988446;28;20642;-64
2023/10/19 06:56:06;;;;;;;4.57;4.17;;;15.80;99.90;;;16.08;nan;98677.09;4974918;28;20657;-65
2023/10/19 06:58:34;;;;;;;4.60;3.67;;;15.80;99.90;;;16.02;nan;98677.03;4987073;28;21335;-65
2023/10/19 07:01:05;;;;;;;6.33;4.30;;;15.80;99.90;;;15.90;nan;98668.06;4982955;28;20670;-65
2023/10/19 07:03:32;;;;;;;5.97;4.07;;;15.70;99.90;;;15.71;nan;98652.94;4991919;28;20642;-65
2023/10/19 07:06:02;;;;;;;6.47;5.00;;;15.50;99.90;;;15.60;nan;98661.34;4983785;28;20639;-65
2023/10/19 07:08:32;;;;;;;6.03;3.60;;;15.40;99.90;;;15.49;nan;98670.56;4991555;28;20704;-65
2023/10/19 07:10:59;;;;;;;4.97;4.30;;;15.30;99.90;;;15.38;nan;98665.78;4991087;28;20653;-64
2023/10/19 07:13:27;;;;;;;5.70;3.97;;;15.20;99.90;;;15.35;nan;98669.56;4983584;28;20645;-65
2023/10/19 07:15:54;;;;;;;6.60;4.40;;;15.20;99.90;;;15.36;nan;98668.59;4991353;28;20642;-65
2023/10/19 07:18:21;;;;;;;6.07;4.50;;;15.20;99.90;;;15.49;nan;98673.19;4991737;28;20646;-65
2023/10/19 07:20:49;;;;;;;5.07;3.67;;;15.30;99.90;;;15.57;nan;98667.78;4990548;28;20715;-65
2023/10/19 07:23:22;;;;;;;3.37;3.00;;;15.40;99.90;;;15.57;nan;98674.88;4986806;28;20638;-65
2023/10/19 07:25:59;;;;;;;5.53;4.03;;;15.40;99.90;;;15.43;nan;98669.50;4990416;28;20642;-64
2023/10/19 07:28:27;;;;;;;8.00;4.47;;;15.30;99.90;;;15.35;nan;98666.16;4988417;28;20642;-65
2023/10/19 07:30:54;;;;;;;4.57;3.50;;;15.20;99.90;;;15.28;nan;98668.72;4992444;28;20638;-65
2023/10/19 07:33:21;;;;;;;4.40;3.27;;;15.10;99.90;;;15.18;nan;98673.44;4984669;28;20661;-64
2023/10/19 07:35:59;;;;;;;5.17;3.97;;;15.00;99.90;;;15.09;nan;98664.09;4989478;28;20638;-64
2023/10/19 07:38:28;;;;;;;3.20;2.60;;;14.90;99.90;;;15.04;nan;98668.25;4986592;28;21036;-65
2023/10/19 07:40:55;;;;;;;2.67;1.90;;;14.90;99.90;;;14.98;nan;98661.94;4991339;28;20661;-64
2023/10/19 07:43:23;;;;;;;1.87;1.77;;;14.80;99.90;;;14.95;nan;98664.13;4973277;28;20626;-65
2023/10/19 07:45:52;;;;;;;3.23;2.77;;;14.80;99.90;;;14.92;nan;98656.59;4990411;28;20699;-65
2023/10/19 07:48:19;;;;;;;3.23;2.57;;;14.70;99.90;;;14.88;nan;98648.31;4992391;28;20696;-65
2023/10/19 07:50:46;;;;;;;3.73;2.57;;;14.70;99.90;;;14.87;nan;98653.72;4992226;28;20634;-67
2023/10/19 07:53:13;;;;;;;4.00;2.40;;;14.70;99.90;;;14.87;nan;98664.22;4990232;28;20644;-65
2023/10/19 07:55:42;;;;;;;3.37;2.03;;;14.70;99.90;;;14.86;nan;98671.31;4988994;28;20776;-66
2023/10/19 07:58:10;;;;;;;3.00;1.87;;;14.70;99.90;;;14.89;nan;98673.53;4987948;28;20705;-64
2023/10/19 08:00:37;;;;;;;3.80;2.43;;;14.70;99.90;;;14.92;nan;98681.06;4990792;28;20637;-65
2023/10/19 08:03:05;;;;;;;4.53;2.23;;;14.70;99.90;;;15.01;nan;98666.81;4988626;28;21301;-65
2023/10/19 08:05:33;;;;;;;2.50;2.30;;;14.80;99.90;;;15.08;nan;98665.06;4989063;28;21215;-66
2023/10/19 08:08:03;;;;;;;4.07;3.50;;;14.80;99.90;;;15.25;nan;98660.38;4988891;28;20646;-65
2023/10/19 08:10:30;;;;;;;3.60;2.20;;;15.00;99.90;;;15.36;nan;98657.25;4984318;28;20662;-65
2023/10/19 08:12:58;;;;;;;1.50;1.37;;;15.10;99.90;;;15.49;nan;98654.78;4989400;28;20638;-66
2023/10/19 08:15:26;;;;;;;2.77;2.53;;;15.30;99.90;;;15.76;nan;98664.50;4991739;28;20669;-66
2023/10/19 08:17:55;;;;;;;4.20;3.20;;;15.40;99.90;;;16.43;nan;98669.22;4988394;28;20643;-66
2023/10/19 08:20:23;;;;;;;3.67;2.90;;;16.10;99.90;;;17.15;nan;98666.88;4992058;28;20654;-66
2023/10/19 08:22:56;;;;;;;2.63;2.10;;;16.80;99.90;;;18.16;nan;98663.91;4989041;28;20677;-66
2023/10/19 08:25:27;;;;;;;4.27;2.67;;;17.90;99.90;;;18.98;nan;98651.66;4973644;28;20633;-66
2023/10/19 08:28:01;;;;;;;5.37;3.40;;;18.70;99.90;;;19.85;nan;98656.16;4986503;28;20642;-65
2023/10/19 08:30:28;;;;;;;24.53;11.10;;;19.60;99.90;;;20.23;nan;98648.13;4982003;28;20729;-64
2023/10/19 08:32:57;;;;;;;12.83;6.00;;;20.00;99.90;;;20.36;nan;98659.38;4988436;28;21196;-64
2023/10/19 08:35:25;;;;;;;8.20;4.87;;;20.20;99.90;;;20.33;nan;98651.88;4986414;28;20641;-65
2023/10/19 08:37:54;;;;;;;3.67;3.00;;;20.20;99.90;;;20.50;nan;98644.16;4982043;28;20634;-64
2023/10/19 08:40:23;;;;;;;3.47;2.90;;;20.30;99.90;;;20.95;nan;98652.56;4988832;28;20757;-65
2023/10/19 08:42:51;;;;;;;6.70;3.13;;;20.70;99.90;;;21.39;nan;98649.50;4987125;28;21051;-65
2023/10/19 08:45:21;;;;;;;3.00;2.70;;;21.10;99.90;;;22.15;nan;98649.50;4989820;28;20626;-65
2023/10/19 08:47:57;;;;;;;2.27;2.10;;;21.90;99.90;;;23.05;nan;98651.41;4987560;28;20642;-65
2023/10/19 08:50:26;;;;;;;2.90;2.57;;;22.80;99.90;;;23.87;nan;98639.25;4993109;28;20666;-65
2023/10/19 08:52:57;;;;;;;5.77;2.67;;;23.60;99.90;;;24.52;nan;98641.25;4988785;28;20631;-64
2023/10/19 08:55:24;;;;;;;3.87;3.13;;;24.30;99.90;;;24.87;nan;98631.03;4988279;28;20638;-65
2023/10/19 08:58:07;;;;;;;7.20;3.03;;;24.70;99.90;;;25.27;nan;98627.97;4974626;28;20653;-65
2023/10/19 09:00:47;;;;;;;4.03;3.17;;;25.00;99.90;;;25.58;nan;98624.53;4987012;28;20642;-65
2023/10/19 09:03:16;;;;;;;2.63;2.43;;;25.40;99.90;;;25.88;nan;98635.44;4984521;28;20645;-65
2023/10/19 09:05:46;;;;;;;6.13;2.47;;;25.80;99.90;;;26.39;nan;98635.75;4981856;28;20653;-65
2023/10/19 09:08:17;;;;;;;4.27;3.77;;;26.20;99.90;;;27.33;nan;98637.16;4975701;28;20643;-65
2023/10/19 09:10:46;;;;;;;5.67;3.50;;;27.10;99.90;;;28.35;nan;98641.41;4993497;28;20642;-65
2023/10/19 09:13:18;;;;;;;2.83;2.33;;;28.20;99.90;;;29.06;nan;98634.69;4987301;28;20649;-64
2023/10/19 09:15:45;;;;;;;2.97;2.63;;;29.00;98.00;;;29.59;nan;98629.50;4975813;28;20659;-65
2023/10/19 09:18:14;;;;;;;3.60;2.67;;;29.50;96.10;;;29.67;nan;98618.94;4983423;28;20646;-64
2023/10/19 09:20:52;;;;;;;2.87;2.60;;;29.60;94.50;;;29.64;nan;98621.41;4987395;28;20643;-64
2023/10/19 09:23:29;;;;;;;4.47;2.97;;;29.50;94.10;;;29.84;nan;98622.06;4988058;28;20629;-65
2023/10/19 09:26:02;;;;;;;5.57;3.83;;;29.50;94.40;;;30.03;nan;98627.50;4989116;28;20722;-65
2023/10/19 09:28:33;;;;;;;2.17;2.00;;;29.70;93.90;;;29.85;nan;98620.97;4980832;28;20658;-65
2023/10/19 09:31:01;;;;;;;3.90;2.80;;;29.50;93.60;;;29.50;nan;98612.38;4990248;28;20634;-65
2023/10/19 09:33:32;;;;;;;5.73;3.40;;;29.30;93.70;;;29.08;nan;98602.19;4982103;28;20646;-65
2023/10/19 09:36:04;;;;;;;3.60;2.40;;;29.00;94.10;;;29.25;nan;98596.47;4985614;28;20637;-64
2023/10/19 09:38:33;;;;;;;2.23;2.13;;;29.20;93.80;;;29.46;nan;98595.22;4987829;28;21571;-64
2023/10/19 09:41:00;;;;;;;2.50;2.30;;;29.40;92.90;;;29.32;nan;98580.84;4986037;28;20653;-65
2023/10/19 09:43:38;;;;;;;4.70;3.90;;;29.30;93.00;;;28.70;nan;98586.84;4987661;28;21219;-65
2023/10/19 09:46:12;;;;;;;2.77;2.30;;;28.60;93.60;;;27.71;nan;98576.91;4973286;28;20692;-64
2023/10/19 09:48:45;;;;;;;2.63;2.33;;;27.70;94.60;;;26.66;nan;98577.59;4987239;28;21050;-64
2023/10/19 09:51:13;;;;;;;3.63;3.30;;;26.60;96.10;;;25.79;nan;98577.44;4989586;28;20661;-65
2023/10/19 09:54:52;;;;;;;2.70;2.30;;;25.70;97.80;;;24.90;nan;98576.38;4979552;28;20642;-65
2023/10/19 09:57:31;;;;;;;2.17;2.07;;;24.90;99.90;;;24.11;nan;98575.94;4978661;28;20640;-64
2023/10/19 10:00:13;;;;;;;1.77;1.67;;;24.00;99.90;;;23.56;nan;98583.91;4986284;28;20661;-65
2023/10/19 10:02:46;;;;;;;3.47;2.83;;;23.40;99.90;;;23.12;nan;98588.22;4985963;28;21293;-65
2023/10/19 10:05:37;;;;;;;4.37;2.60;;;22.90;99.90;;;22.71;nan;98588.53;4987182;28;20653;-65
2023/10/19 10:08:16;;;;;;;2.60;2.40;;;22.50;99.90;;;22.37;nan;98589.41;4984642;28;21262;-65
2023/10/19 10:10:49;;;;;;;3.50;2.30;;;22.10;99.90;;;22.05;nan;98596.16;4979545;28;20638;-65
2023/10/19 10:13:28;;;;;;;2.83;2.63;;;21.80;99.90;;;21.74;nan;98586.69;4987843;28;20638;-65
2023/10/19 10:15:57;;;;;;;4.13;2.10;;;21.50;99.90;;;21.43;nan;98566.59;4985940;28;20626;-65
2023/10/19 10:18:26;;;;;;;4.40;2.97;;;21.20;99.90;;;21.11;nan;98578.53;4988234;28;20653;-65
2023/10/19 10:21:12;;;;;;;4.67;2.93;;;20.90;99.90;;;20.83;nan;98575.63;4989645;28;21207;-65
2023/10/19 10:24:03;;;;;;;2.43;2.00;;;20.50;99.90;;;20.37;nan;98572.78;4987827;28;21025;-64
2023/10/19 10:26:58;;;;;;;3.63;2.20;;;20.20;99.90;;;20.09;nan;98574.09;4983019;28;20638;-65
2023/10/19 10:29:26;;;;;;;4.43;2.27;;;19.90;99.90;;;19.97;nan;98569.75;4986032;28;20669;-64
2023/10/19 10:31:53;;;;;;;3.80;1.80;;;19.70;99.90;;;19.70;nan;98574.47;4992605;28;20708;-65
2023/10/19 10:34:42;;;;;;;3.17;2.20;;;19.40;99.90;;;19.50;nan;98567.75;4992282;28;20642;-64
2023/10/19 10:37:14;;;;;;;2.63;2.40;;;19.20;99.90;;;19.28;nan;98562.00;4982926;28;20635;-65
2023/10/19 10:39:42;;;;;;;2.20;1.97;;;18.90;99.90;;;19.13;nan;98559.69;4991163;28;20731;-64
2023/10/19 10:42:10;;;;;;;2.97;2.60;;;18.80;99.90;;;19.00;nan;98578.25;4989886;28;20670;-64
2023/10/19 10:44:45;;;;;;;2.60;1.93;;;18.70;99.90;;;18.95;nan;98566.72;4989277;28;20645;-64
2023/10/19 10:47:29;;;;;;;2.37;2.17;;;18.70;99.90;;;18.89;nan;98562.28;4991877;28;20633;-65
2023/10/19 10:49:59;;;;;;;2.83;2.53;;;18.60;99.90;;;18.82;nan;98566.81;4990606;28;20661;-64
2023/10/19 10:52:33;;;;;;;3.50;2.60;;;18.60;99.90;;;18.72;nan;98564.59;4984923;28;20645;-63
2023/10/19 10:55:15;;;;;;;23.37;8.30;;;18.50;99.90;;;18.67;nan;98555.72;4988242;28;21276;-63
2023/10/19 10:57:44;;;;;;;9.30;4.77;;;18.40;99.90;;;18.60;nan;98553.09;5004200;28;20638;-65
2023/10/19 11:00:18;;;;;;;3.30;2.07;;;18.30;99.90;;;18.56;nan;98555.38;4982637;28;20677;-65
2023/10/19 11:02:47;;;;;;;3.57;2.30;;;18.20;99.90;;;18.49;nan;98551.13;4989115;28;20662;-65
2023/10/19 11:05:16;;;;;;;3.30;1.63;;;18.20;99.90;;;18.41;nan;98557.44;4990735;28;20642;-66